VOBG/BLR METAR and TAF weather

Enter ICAO airport designator
Station Type Date Time Source
VOBG METAR 2019/12/08 01:00 UTC NOAA

VOBG 080100Z VRB01KT 1000 BR BKN008 19/18 Q1017 NOSIG


Station Type Date Time Source
VOBG Decoded METAR 2019/12/08 01:00 UTC NOAA

Bangalore / Hindustan, India (VOBG) 12-57N 077-40E
Dec 07, 2019 - 08:00 PM EST / 2019.12.08 0100 UTC
Wind: Variable at 1 MPH (1 KT):0
Visibility: less than 1 mile:0
Sky conditions: mostly cloudy
Weather: mist
Temperature: 66 F (19 C)
Dew Point: 64 F (18 C)
Relative Humidity: 93%
Pressure (altimeter): 30.03 in. Hg (1017 hPa)
ob: VOBG 080100Z VRB01KT 1000 BR BKN008 19/18 Q1017 NOSIG
cycle: 1

Station Type Date Time Source
VOBG TAF 2018/07/15 00:00 UTC NOAA

VOBG 142300Z 1500/1509 27010KT 6000 SCT010 BKN080
TEMPO 1500/1503 5000 BR SCT008 BKN080

Example: see airport list